Ice Bear — ZCRT2 — position and weather

sailwx.info

Track history (hours):
 
Tides and Currents Weather Stations Pressure Air Temp Water Temp Dewpoint Dewpoint Depression Visibility Wind Speed Wind Dir Waves Ship Positions

Ice Bear

Last reported at 2018-Jun-02 06:44 UTC. Time now 2018-Jun-23 21:40 UTC.
Position N 54°26' W 130°39'.
Warning: this ship's position is 21 days out of date.

Length 52 m.

Type: Pleasure craft. MMSI: 319577000.

Date/timePositionNaut miles runAvg speedWind from/ knotsBaromVisibWave heightAir tempDewpointWater temp
2018-Jun-02 06:44N 54°26' W 130°39'3 6.2
2018-Jun-02 06:13N 54°23' W 130°37'1 6.6
2018-Jun-02 06:00N 54°22' W 130°36'3 6.4
2018-Jun-02 05:28N 54°19' W 130°34'3 6.3
2018-Jun-02 05:00N 54°16' W 130°32'3 6.6
2018-Jun-02 04:30N 54°13' W 130°29'4 7.1
2018-Jun-02 04:00N 54°10' W 130°26'3 6.4
2018-Jun-02 03:30N 54°08' W 130°23'4 7.6
2018-Jun-02 03:00N 54°05' W 130°18'4 8.8
2018-Jun-02 02:30N 54°01' W 130°14'4 9.0
2018-Jun-02 02:00N 53°57' W 130°12'4 7.9
2018-Jun-02 01:30N 53°54' W 130°07'10510.3
2018-Jun-01 15:19N 52°28' W 128°27'17 9.6
2018-Jun-01 13:36N 52°14' W 128°12'6 8.3
2018-Jun-01 12:51N 52°08' W 128°08'411.4
2018-Jun-01 12:30N 52°05' W 128°05'611.7
2018-Jun-01 12:00N 52°03' W 127°56'611.6
2018-Jun-01 11:30N 51°57' W 127°56'612.1
2018-Jun-01 10:59N 51°51' W 127°55'612.2
2018-Jun-01 10:30N 51°45' W 127°54'612.0
2018-Jun-01 10:00N 51°39' W 127°53'612.2
2018-Jun-01 09:30N 51°33' W 127°52'2811.6
2018-Jun-01 07:07N 51°06' W 127°44'212.2
2018-Jun-01 06:58N 51°05' W 127°42'612.2
2018-Jun-01 06:30N 51°01' W 127°36'612.3
2018-Jun-01 06:00N 50°57' W 127°28'612.3
2018-Jun-01 05:30N 50°53' W 127°20'8310.7
2018-May-31 21:46N 50°16' W 125°24'311.2
2018-May-31 21:29N 50°13' W 125°22'510.4
2018-May-31 20:59N 50°08' W 125°21'611.6
2018-May-31 20:29N 50°03' W 125°15'712.3
2018-May-31 19:56N 49°58' W 125°09'813.0
2018-May-31 19:21N 49°52' W 125°01'512.4
2018-May-31 18:56N 49°49' W 124°55'612.4
2018-May-31 18:28N 49°45' W 124°49'49 7.5
2018-May-31 11:58N 49°10' W 123°56'55 1.4
2018-May-29 21:00N 48°42' W 122°44'611.5
2018-May-29 20:28N 48°36' W 122°45'612.1
2018-May-29 20:00N 48°31' W 122°44'4811.6
2018-May-29 15:49N 47°44' W 122°26'3 9.7
2018-May-29 15:30N 47°41' W 122°26'1 2.5
2018-May-29 14:56N 47°40' W 122°24'0 0.6
2018-May-29 14:30N 47°40' W 122°24'1 1.2
2018-May-29 14:00N 47°40' W 122°23'2 2.8
2018-May-29 13:27N 47°39' W 122°21'0 0.5
2018-May-29 12:49N 47°39' W 122°21'0 0.0
2018-May-29 08:07N 47°39' W 122°21'0 0.0
2018-May-29 06:04N 47°39' W 122°21'0 0.2
2018-May-29 05:49N 47°39' W 122°21'0 0.0
2018-May-29 05:28N 47°39' W 122°21'0 0.0
2018-May-29 04:07N 47°39' W 122°21'0 0.0
2018-May-29 03:43N 47°39' W 122°21'0 0.0
2018-May-29 03:28N 47°39' W 122°21'0 0.0
2018-May-29 02:55N 47°39' W 122°21'0 0.0
2018-May-29 00:55N 47°39' W 122°21'0 0.1
2018-May-29 00:25N 47°39' W 122°21'0 0.0
2018-May-28 23:49N 47°39' W 122°21'0 0.0
2018-May-28 21:49N 47°39' W 122°21'0 0.0
2018-May-28 20:43N 47°39' W 122°21'0 0.1
2018-May-28 20:25N 47°39' W 122°21'0 0.1
2018-May-28 19:37N 47°39' W 122°21'0 0.1
2018-May-28 19:13N 47°39' W 122°21'0 0.0
2018-May-28 18:37N 47°39' W 122°21'0 0.0
2018-May-28 18:07N 47°39' W 122°21'0 0.3
2018-May-28 17:52N 47°39' W 122°20'0 0.8
2018-May-28 17:30N 47°38' W 122°20'0 0.3
2018-May-28 16:56N 47°38' W 122°20'0 0.4
2018-May-28 16:30N 47°38' W 122°20'0 0.0
2018-May-28 06:46N 47°39' W 122°21'0 0.0
2018-May-28 06:28N 47°39' W 122°21'0 0.0
2018-May-28 05:34N 47°39' W 122°21'0 0.0
2018-May-28 05:28N 47°39' W 122°21'0 0.0
2018-May-28 04:40N 47°39' W 122°21'0 0.0
2018-May-28 04:16N 47°39' W 122°21'0 0.0
2018-May-28 03:52N 47°39' W 122°21'0 0.0
2018-May-28 03:28N 47°39' W 122°21'0 0.0
2018-May-28 02:22N 47°39' W 122°21'0 0.0
2018-May-28 01:58N 47°39' W 122°21'0 0.0
2018-May-28 01:28N 47°39' W 122°21'0 0.1
2018-May-28 00:58N 47°39' W 122°21'0 0.1
2018-May-28 00:22N 47°39' W 122°21'0 0.0
2018-May-27 23:58N 47°39' W 122°21'0 0.0
2018-May-27 23:28N 47°39' W 122°21'0 0.0
2018-May-27 22:52N 47°39' W 122°21'0 0.0
2018-May-27 18:10N 47°39' W 122°21'0 0.0
2018-May-27 17:52N 47°39' W 122°21'0 0.0
2018-May-27 09:16N 47°39' W 122°21'0 0.0
2018-May-27 06:10N 47°39' W 122°21'0 0.0
2018-May-27 05:52N 47°39' W 122°21'0 0.0
2018-May-27 04:28N 47°39' W 122°21'0 0.0
2018-May-27 03:58N 47°39' W 122°21'0 0.0
2018-May-27 03:28N 47°39' W 122°21'0 0.0
2018-May-27 02:49N 47°39' W 122°21'0 0.0
2018-May-27 02:22N 47°39' W 122°21'0 0.0
2018-May-27 01:52N 47°39' W 122°21'0 0.0
2018-May-27 01:28N 47°39' W 122°21'0 0.0
2018-May-27 00:58N 47°39' W 122°21'0 0.0
2018-May-26 23:40N 47°39' W 122°21'0 0.0
2018-May-26 03:28N 47°39' W 122°21'0 0.0
2018-May-26 02:52N 47°39' W 122°21'0 0.0
2018-May-26 02:04N 47°39' W 122°21'0 0.0
2018-May-26 01:46N 47°39' W 122°21'0 0.0
2018-May-26 01:22N 47°39' W 122°21'0 0.0
2018-May-25 22:40N 47°39' W 122°21'0 0.0
2018-May-25 19:46N 47°39' W 122°21'0 0.0
2018-May-25 19:22N 47°39' W 122°21'0 0.0
2018-May-25 08:28N 47°39' W 122°21'0 0.0
2018-May-25 07:52N 47°39' W 122°21'0 0.0
2018-May-25 07:22N 47°39' W 122°21'0 0.0
2018-May-25 06:58N 47°39' W 122°21'0 0.0
2018-May-25 05:40N 47°39' W 122°21'0 0.1
2018-May-25 05:22N 47°39' W 122°21'0 0.0
2018-May-25 04:52N 47°39' W 122°21'0 0.0
2018-May-25 04:16N 47°39' W 122°21'0 0.0
2018-May-25 03:58N 47°39' W 122°21'0 0.0
2018-May-25 03:28N 47°39' W 122°21'0 0.0
2018-May-25 02:58N 47°39' W 122°21'0 0.0
2018-May-25 01:52N 47°39' W 122°21'0 0.1
2018-May-25 01:10N 47°39' W 122°21'0 0.0
2018-May-25 00:58N 47°39' W 122°21'0 0.0
2018-May-24 23:04N 47°39' W 122°21'0 0.0
2018-May-24 22:52N 47°39' W 122°21'0 0.0
2018-May-24 18:43N 47°39' W 122°21'0 0.0
2018-May-24 17:34N 47°39' W 122°21'0 0.0
2018-May-24 17:10N 47°39' W 122°21'0 0.0
2018-May-24 16:46N 47°39' W 122°21'0 0.0
2018-May-24 16:22N 47°39' W 122°21'0 0.0
2018-May-24 14:28N 47°39' W 122°21'0 0.0
2018-May-24 13:58N 47°39' W 122°21'0 0.0
2018-May-24 08:58N 47°39' W 122°21'0 0.0
2018-May-24 07:40N 47°39' W 122°21'0 0.0
2018-May-24 07:16N 47°39' W 122°21'0 0.0
2018-May-24 06:58N 47°39' W 122°21'0 0.0
2018-May-24 06:22N 47°39' W 122°21'0 0.0
2018-May-24 05:58N 47°39' W 122°21'0 0.0
2018-May-24 05:28N 47°39' W 122°21'0 0.0
2018-May-24 04:55N 47°39' W 122°21'0 0.0
2018-May-24 04:25N 47°39' W 122°21'0 0.0
2018-May-24 03:58N 47°39' W 122°21'0 0.0
2018-May-24 03:28N 47°39' W 122°21'0 0.0
2018-May-24 02:52N 47°39' W 122°21'0 0.0
2018-May-24 02:28N 47°39' W 122°21'0 0.0
2018-May-24 01:58N 47°39' W 122°21'0 0.0
2018-May-24 01:28N 47°39' W 122°21'0 0.0
2018-May-24 00:49N 47°39' W 122°21'0 0.0
2018-May-24 00:28N 47°39' W 122°21'0 0.0
2018-May-23 23:58N 47°39' W 122°21'0 0.0
2018-May-23 23:28N 47°39' W 122°21'0 0.0
2018-May-23 22:55N 47°39' W 122°21'0 0.0
2018-May-23 22:19N 47°39' W 122°21'0 0.0
2018-May-23 21:58N 47°39' W 122°21'0 0.1
2018-May-23 21:28N 47°39' W 122°21'0 0.1
2018-May-23 20:58N 47°39' W 122°21'0 0.0
2018-May-23 20:28N 47°39' W 122°21'0 0.0
2018-May-23 19:58N 47°39' W 122°21'0 0.0
2018-May-23 19:22N 47°39' W 122°21'0 0.0
2018-May-23 18:58N 47°39' W 122°21'0 0.0
2018-May-23 18:28N 47°39' W 122°21'0 0.0
2018-May-23 17:58N 47°39' W 122°21'0 0.0
2018-May-23 17:19N 47°39' W 122°21'0 0.0
2018-May-23 16:58N 47°39' W 122°21'0 0.0
2018-May-23 16:22N 47°39' W 122°21'0 0.0
2018-May-23 15:58N 47°39' W 122°21'0 0.0
2018-May-23 15:19N 47°39' W 122°21'0 0.0
2018-May-23 14:58N 47°39' W 122°21'0 0.0
2018-May-23 14:22N 47°39' W 122°21'0 0.0
2018-May-23 13:58N 47°39' W 122°21'0 0.0
2018-May-23 13:25N 47°39' W 122°21'0 0.0
2018-May-23 12:52N 47°39' W 122°21'0 0.0
2018-May-23 12:28N 47°39' W 122°21'0 0.0
2018-May-23 11:46N 47°39' W 122°21'0 0.0
2018-May-23 11:22N 47°39' W 122°21'0 0.0
2018-May-23 10:52N 47°39' W 122°21'0 0.0
2018-May-23 10:28N 47°39' W 122°21'0 0.0
2018-May-23 09:52N 47°39' W 122°21'0 0.0
2018-May-23 09:28N 47°39' W 122°21'0 0.0
2018-May-23 08:58N 47°39' W 122°21'0 0.0
2018-May-23 08:28N 47°39' W 122°21'0 0.0
2018-May-23 07:58N 47°39' W 122°21'0 0.0
2018-May-23 07:28N 47°39' W 122°21'0 0.0
2018-May-23 06:58N 47°39' W 122°21'  
Track history (hours):
 
Tides and Currents Weather Stations Pressure Air Temp Water Temp Dewpoint Dewpoint Depression Visibility Wind Speed Wind Dir Waves Ship Positions

Ice Bear

Last reported at 2018-Jun-02 06:44 UTC. Time now 2018-Jun-23 21:40 UTC.
Position N 54°26' W 130°39'.
Warning: this ship's position is 21 days out of date.

Length 52 m.

Type: Pleasure craft. MMSI: 319577000.

Date/timePositionNaut miles runAvg speedWind from/ knotsBaromVisibWave heightAir tempDewpointWater temp
2018-Jun-02 06:44N 54°26' W 130°39'3 6.2
2018-Jun-02 06:13N 54°23' W 130°37'1 6.6
2018-Jun-02 06:00N 54°22' W 130°36'3 6.4
2018-Jun-02 05:28N 54°19' W 130°34'3 6.3
2018-Jun-02 05:00N 54°16' W 130°32'3 6.6
2018-Jun-02 04:30N 54°13' W 130°29'4 7.1
2018-Jun-02 04:00N 54°10' W 130°26'3 6.4
2018-Jun-02 03:30N 54°08' W 130°23'4 7.6
2018-Jun-02 03:00N 54°05' W 130°18'4 8.8
2018-Jun-02 02:30N 54°01' W 130°14'4 9.0
2018-Jun-02 02:00N 53°57' W 130°12'4 7.9
2018-Jun-02 01:30N 53°54' W 130°07'10510.3
2018-Jun-01 15:19N 52°28' W 128°27'17 9.6
2018-Jun-01 13:36N 52°14' W 128°12'6 8.3
2018-Jun-01 12:51N 52°08' W 128°08'411.4
2018-Jun-01 12:30N 52°05' W 128°05'611.7
2018-Jun-01 12:00N 52°03' W 127°56'611.6
2018-Jun-01 11:30N 51°57' W 127°56'612.1
2018-Jun-01 10:59N 51°51' W 127°55'612.2
2018-Jun-01 10:30N 51°45' W 127°54'612.0
2018-Jun-01 10:00N 51°39' W 127°53'612.2
2018-Jun-01 09:30N 51°33' W 127°52'2811.6
2018-Jun-01 07:07N 51°06' W 127°44'212.2
2018-Jun-01 06:58N 51°05' W 127°42'612.2
2018-Jun-01 06:30N 51°01' W 127°36'612.3
2018-Jun-01 06:00N 50°57' W 127°28'612.3
2018-Jun-01 05:30N 50°53' W 127°20'8310.7
2018-May-31 21:46N 50°16' W 125°24'311.2
2018-May-31 21:29N 50°13' W 125°22'510.4
2018-May-31 20:59N 50°08' W 125°21'611.6
2018-May-31 20:29N 50°03' W 125°15'712.3
2018-May-31 19:56N 49°58' W 125°09'813.0
2018-May-31 19:21N 49°52' W 125°01'512.4
2018-May-31 18:56N 49°49' W 124°55'612.4
2018-May-31 18:28N 49°45' W 124°49'49 7.5
2018-May-31 11:58N 49°10' W 123°56'55 1.4
2018-May-29 21:00N 48°42' W 122°44'611.5
2018-May-29 20:28N 48°36' W 122°45'612.1
2018-May-29 20:00N 48°31' W 122°44'4811.6
2018-May-29 15:49N 47°44' W 122°26'3 9.7
2018-May-29 15:30N 47°41' W 122°26'1 2.5
2018-May-29 14:56N 47°40' W 122°24'0 0.6
2018-May-29 14:30N 47°40' W 122°24'1 1.2
2018-May-29 14:00N 47°40' W 122°23'2 2.8
2018-May-29 13:27N 47°39' W 122°21'0 0.5
2018-May-29 12:49N 47°39' W 122°21'0 0.0
2018-May-29 08:07N 47°39' W 122°21'0 0.0
2018-May-29 06:04N 47°39' W 122°21'0 0.2
2018-May-29 05:49N 47°39' W 122°21'0 0.0
2018-May-29 05:28N 47°39' W 122°21'0 0.0
2018-May-29 04:07N 47°39' W 122°21'0 0.0
2018-May-29 03:43N 47°39' W 122°21'0 0.0
2018-May-29 03:28N 47°39' W 122°21'0 0.0
2018-May-29 02:55N 47°39' W 122°21'0 0.0
2018-May-29 00:55N 47°39' W 122°21'0 0.1
2018-May-29 00:25N 47°39' W 122°21'0 0.0
2018-May-28 23:49N 47°39' W 122°21'0 0.0
2018-May-28 21:49N 47°39' W 122°21'0 0.0
2018-May-28 20:43N 47°39' W 122°21'0 0.1
2018-May-28 20:25N 47°39' W 122°21'0 0.1
2018-May-28 19:37N 47°39' W 122°21'0 0.1
2018-May-28 19:13N 47°39' W 122°21'0 0.0
2018-May-28 18:37N 47°39' W 122°21'0 0.0
2018-May-28 18:07N 47°39' W 122°21'0 0.3
2018-May-28 17:52N 47°39' W 122°20'0 0.8
2018-May-28 17:30N 47°38' W 122°20'0 0.3
2018-May-28 16:56N 47°38' W 122°20'0 0.4
2018-May-28 16:30N 47°38' W 122°20'0 0.0
2018-May-28 06:46N 47°39' W 122°21'0 0.0
2018-May-28 06:28N 47°39' W 122°21'0 0.0
2018-May-28 05:34N 47°39' W 122°21'0 0.0
2018-May-28 05:28N 47°39' W 122°21'0 0.0
2018-May-28 04:40N 47°39' W 122°21'0 0.0
2018-May-28 04:16N 47°39' W 122°21'0 0.0
2018-May-28 03:52N 47°39' W 122°21'0 0.0
2018-May-28 03:28N 47°39' W 122°21'0 0.0
2018-May-28 02:22N 47°39' W 122°21'0 0.0
2018-May-28 01:58N 47°39' W 122°21'0 0.0
2018-May-28 01:28N 47°39' W 122°21'0 0.1
2018-May-28 00:58N 47°39' W 122°21'0 0.1
2018-May-28 00:22N 47°39' W 122°21'0 0.0
2018-May-27 23:58N 47°39' W 122°21'0 0.0
2018-May-27 23:28N 47°39' W 122°21'0 0.0
2018-May-27 22:52N 47°39' W 122°21'0 0.0
2018-May-27 18:10N 47°39' W 122°21'0 0.0
2018-May-27 17:52N 47°39' W 122°21'0 0.0
2018-May-27 09:16N 47°39' W 122°21'0 0.0
2018-May-27 06:10N 47°39' W 122°21'0 0.0
2018-May-27 05:52N 47°39' W 122°21'0 0.0
2018-May-27 04:28N 47°39' W 122°21'0 0.0
2018-May-27 03:58N 47°39' W 122°21'0 0.0
2018-May-27 03:28N 47°39' W 122°21'0 0.0
2018-May-27 02:49N 47°39' W 122°21'0 0.0
2018-May-27 02:22N 47°39' W 122°21'0 0.0
2018-May-27 01:52N 47°39' W 122°21'0 0.0
2018-May-27 01:28N 47°39' W 122°21'0 0.0
2018-May-27 00:58N 47°39' W 122°21'0 0.0
2018-May-26 23:40N 47°39' W 122°21'0 0.0
2018-May-26 03:28N 47°39' W 122°21'0 0.0
2018-May-26 02:52N 47°39' W 122°21'0 0.0
2018-May-26 02:04N 47°39' W 122°21'0 0.0
2018-May-26 01:46N 47°39' W 122°21'0 0.0
2018-May-26 01:22N 47°39' W 122°21'0 0.0
2018-May-25 22:40N 47°39' W 122°21'0 0.0
2018-May-25 19:46N 47°39' W 122°21'0 0.0
2018-May-25 19:22N 47°39' W 122°21'0 0.0
2018-May-25 08:28N 47°39' W 122°21'0 0.0
2018-May-25 07:52N 47°39' W 122°21'0 0.0
2018-May-25 07:22N 47°39' W 122°21'0 0.0
2018-May-25 06:58N 47°39' W 122°21'0 0.0
2018-May-25 05:40N 47°39' W 122°21'0 0.1
2018-May-25 05:22N 47°39' W 122°21'0 0.0
2018-May-25 04:52N 47°39' W 122°21'0 0.0
2018-May-25 04:16N 47°39' W 122°21'0 0.0
2018-May-25 03:58N 47°39' W 122°21'0 0.0
2018-May-25 03:28N 47°39' W 122°21'0 0.0
2018-May-25 02:58N 47°39' W 122°21'0 0.0
2018-May-25 01:52N 47°39' W 122°21'0 0.1
2018-May-25 01:10N 47°39' W 122°21'0 0.0
2018-May-25 00:58N 47°39' W 122°21'0 0.0
2018-May-24 23:04N 47°39' W 122°21'0 0.0
2018-May-24 22:52N 47°39' W 122°21'0 0.0
2018-May-24 18:43N 47°39' W 122°21'0 0.0
2018-May-24 17:34N 47°39' W 122°21'0 0.0
2018-May-24 17:10N 47°39' W 122°21'0 0.0
2018-May-24 16:46N 47°39' W 122°21'0 0.0
2018-May-24 16:22N 47°39' W 122°21'0 0.0
2018-May-24 14:28N 47°39' W 122°21'0 0.0
2018-May-24 13:58N 47°39' W 122°21'0 0.0
2018-May-24 08:58N 47°39' W 122°21'0 0.0
2018-May-24 07:40N 47°39' W 122°21'0 0.0
2018-May-24 07:16N 47°39' W 122°21'0 0.0
2018-May-24 06:58N 47°39' W 122°21'0 0.0
2018-May-24 06:22N 47°39' W 122°21'0 0.0
2018-May-24 05:58N 47°39' W 122°21'0 0.0
2018-May-24 05:28N 47°39' W 122°21'0 0.0
2018-May-24 04:55N 47°39' W 122°21'0 0.0
2018-May-24 04:25N 47°39' W 122°21'0 0.0
2018-May-24 03:58N 47°39' W 122°21'0 0.0
2018-May-24 03:28N 47°39' W 122°21'0 0.0
2018-May-24 02:52N 47°39' W 122°21'0 0.0
2018-May-24 02:28N 47°39' W 122°21'0 0.0
2018-May-24 01:58N 47°39' W 122°21'0 0.0
2018-May-24 01:28N 47°39' W 122°21'0 0.0
2018-May-24 00:49N 47°39' W 122°21'0 0.0
2018-May-24 00:28N 47°39' W 122°21'0 0.0
2018-May-23 23:58N 47°39' W 122°21'0 0.0
2018-May-23 23:28N 47°39' W 122°21'0 0.0
2018-May-23 22:55N 47°39' W 122°21'0 0.0
2018-May-23 22:19N 47°39' W 122°21'0 0.0
2018-May-23 21:58N 47°39' W 122°21'0 0.1
2018-May-23 21:28N 47°39' W 122°21'0 0.1
2018-May-23 20:58N 47°39' W 122°21'0 0.0
2018-May-23 20:28N 47°39' W 122°21'0 0.0
2018-May-23 19:58N 47°39' W 122°21'0 0.0
2018-May-23 19:22N 47°39' W 122°21'0 0.0
2018-May-23 18:58N 47°39' W 122°21'0 0.0
2018-May-23 18:28N 47°39' W 122°21'0 0.0
2018-May-23 17:58N 47°39' W 122°21'0 0.0
2018-May-23 17:19N 47°39' W 122°21'0 0.0
2018-May-23 16:58N 47°39' W 122°21'0 0.0
2018-May-23 16:22N 47°39' W 122°21'0 0.0
2018-May-23 15:58N 47°39' W 122°21'0 0.0
2018-May-23 15:19N 47°39' W 122°21'0 0.0
2018-May-23 14:58N 47°39' W 122°21'0 0.0
2018-May-23 14:22N 47°39' W 122°21'0 0.0
2018-May-23 13:58N 47°39' W 122°21'0 0.0
2018-May-23 13:25N 47°39' W 122°21'0 0.0
2018-May-23 12:52N 47°39' W 122°21'0 0.0
2018-May-23 12:28N 47°39' W 122°21'0 0.0
2018-May-23 11:46N 47°39' W 122°21'0 0.0
2018-May-23 11:22N 47°39' W 122°21'0 0.0
2018-May-23 10:52N 47°39' W 122°21'0 0.0
2018-May-23 10:28N 47°39' W 122°21'0 0.0
2018-May-23 09:52N 47°39' W 122°21'0 0.0
2018-May-23 09:28N 47°39' W 122°21'0 0.0
2018-May-23 08:58N 47°39' W 122°21'0 0.0
2018-May-23 08:28N 47°39' W 122°21'0 0.0
2018-May-23 07:58N 47°39' W 122°21'0 0.0
2018-May-23 07:28N 47°39' W 122°21'0 0.0
2018-May-23 06:58N 47°39' W 122°21'  

Dump ship's entire track history